createdAt,value
2023-02-13T00:00:46.944Z,7.30
2023-02-13T00:03:14.292Z,7.20
2023-02-13T00:05:41.103Z,7.20
2023-02-13T00:08:07.803Z,7.10
2023-02-13T00:10:34.525Z,7.10
2023-02-13T00:13:01.245Z,7.10
2023-02-13T00:15:28.017Z,7.00
2023-02-13T00:17:54.818Z,7.00
2023-02-13T00:20:22.200Z,7.00
2023-02-13T00:22:48.912Z,6.90
2023-02-13T00:25:15.772Z,6.90
2023-02-13T00:27:42.551Z,6.90
2023-02-13T00:30:10.055Z,6.80
2023-02-13T00:32:36.944Z,6.80
2023-02-13T00:35:04.090Z,6.80
2023-02-13T00:37:30.988Z,6.80
2023-02-13T00:39:57.864Z,6.80
2023-02-13T00:42:26.527Z,6.80
2023-02-13T00:44:54.406Z,6.70
2023-02-13T00:47:21.817Z,6.70
2023-02-13T00:49:48.692Z,6.70
2023-02-13T00:52:15.468Z,6.70
2023-02-13T00:54:42.203Z,6.70
2023-02-13T00:57:08.973Z,6.60
2023-02-13T00:59:35.685Z,6.60
2023-02-13T01:02:02.447Z,6.60
2023-02-13T01:04:29.291Z,6.60
2023-02-13T01:06:56.022Z,6.50
2023-02-13T01:09:22.776Z,6.50
2023-02-13T01:11:49.525Z,6.50
2023-02-13T01:14:16.329Z,6.50
2023-02-13T01:16:43.097Z,6.50
2023-02-13T01:19:09.980Z,6.50
2023-02-13T01:21:36.720Z,6.50
2023-02-13T01:24:05.985Z,6.60
2023-02-13T01:26:32.815Z,6.60
2023-02-13T01:28:59.637Z,6.60
2023-02-13T01:31:27.405Z,6.60
2023-02-13T01:33:58.351Z,6.60
2023-02-13T01:36:26.185Z,6.60
2023-02-13T01:38:56.241Z,6.60
2023-02-13T01:41:25.439Z,6.60
2023-02-13T01:43:58.325Z,6.60
2023-02-13T01:46:31.264Z,6.50
2023-02-13T01:49:12.091Z,6.50
2023-02-13T01:51:40.434Z,6.50
2023-02-13T01:54:21.007Z,6.50
2023-02-13T01:56:57.409Z,6.50
2023-02-13T01:59:35.259Z,6.40
2023-02-13T02:02:03.290Z,6.40
2023-02-13T02:04:37.692Z,6.40
2023-02-13T02:07:16.485Z,6.70
2023-02-13T02:09:45.382Z,6.30
2023-02-13T02:12:36.059Z,6.30
2023-02-13T02:15:05.941Z,6.30
2023-02-13T02:17:32.813Z,6.20
2023-02-13T02:20:36.295Z,6.20
2023-02-13T02:23:24.428Z,6.30
2023-02-13T02:26:08.868Z,6.30
2023-02-13T02:29:05.508Z,6.30
2023-02-13T02:32:17.609Z,6.30
2023-02-13T02:35:05.447Z,6.30
2023-02-13T02:38:03.122Z,6.40
2023-02-13T02:41:04.383Z,6.40
2023-02-13T02:44:20.228Z,6.40
2023-02-13T02:47:35.826Z,6.30
2023-02-13T02:50:26.797Z,6.40
2023-02-13T02:53:02.075Z,6.40
2023-02-13T02:55:50.832Z,6.40
2023-02-13T02:58:57.885Z,6.40
2023-02-13T03:01:49.078Z,6.40
2023-02-13T03:05:02.041Z,6.40
2023-02-13T03:07:28.844Z,6.40
2023-02-13T03:10:29.770Z,6.40
2023-02-13T03:13:21.880Z,6.30
2023-02-13T03:16:13.181Z,6.30
2023-02-13T03:19:04.833Z,6.30
2023-02-13T03:22:15.243Z,6.30
2023-02-13T03:25:12.429Z,6.30
2023-02-13T03:28:14.478Z,6.20
2023-02-13T03:31:35.074Z,6.20
2023-02-13T03:34:20.452Z,6.20
2023-02-13T03:37:26.122Z,6.10
2023-02-13T03:40:08.456Z,6.10
2023-02-13T03:42:51.627Z,6.10
2023-02-13T03:45:45.460Z,6.10
2023-02-13T03:48:36.748Z,6.10
2023-02-13T03:51:08.203Z,6.00
2023-02-13T03:53:39.317Z,6.00
2023-02-13T03:56:27.985Z,6.00
2023-02-13T03:59:14.634Z,6.00
2023-02-13T04:02:00.718Z,6.00
2023-02-13T04:04:46.276Z,6.00
2023-02-13T04:07:29.567Z,6.00
2023-02-13T04:10:11.329Z,5.90
2023-02-13T04:13:12.128Z,5.90
2023-02-13T04:16:06.836Z,5.90
2023-02-13T04:18:34.956Z,5.90
2023-02-13T04:21:04.885Z,5.90
2023-02-13T04:23:31.713Z,5.80
2023-02-13T04:26:03.700Z,5.80
2023-02-13T04:28:30.564Z,5.80
2023-02-13T04:30:58.208Z,5.80
2023-02-13T04:33:25.281Z,5.80
2023-02-13T04:35:52.010Z,5.80
2023-02-13T04:38:18.733Z,5.70
2023-02-13T04:40:45.464Z,5.70
2023-02-13T04:43:12.188Z,5.70
2023-02-13T04:45:38.988Z,5.70
2023-02-13T04:48:05.820Z,5.70
2023-02-13T04:50:32.575Z,5.60
2023-02-13T04:52:59.328Z,5.60
2023-02-13T04:55:28.261Z,5.60
2023-02-13T04:57:55.852Z,5.60
2023-02-13T05:00:26.864Z,5.50
2023-02-13T05:02:54.047Z,5.50
2023-02-13T05:05:21.317Z,5.50
2023-02-13T05:07:48.091Z,5.50
2023-02-13T05:10:14.869Z,5.50
2023-02-13T05:13:43.853Z,5.50
2023-02-13T05:16:13.803Z,4.80
2023-02-13T05:18:45.298Z,5.70
2023-02-13T05:21:30.513Z,4.70
2023-02-13T05:23:57.352Z,5.30
2023-02-13T05:26:24.308Z,5.30
2023-02-13T05:29:09.668Z,5.30
2023-02-13T05:31:36.470Z,5.20
2023-02-13T05:34:03.346Z,5.20
2023-02-13T05:36:30.080Z,5.20
2023-02-13T05:38:56.844Z,5.10
2023-02-13T05:41:23.602Z,5.10
2023-02-13T05:55:04.462Z,4.90
2023-02-13T05:57:32.137Z,4.50
2023-02-13T06:00:00.147Z,5.60
2023-02-13T06:02:26.924Z,4.90
2023-02-13T06:04:53.673Z,4.90
2023-02-13T06:07:20.482Z,4.90
2023-02-13T06:09:47.231Z,4.90
2023-02-13T06:12:14.061Z,4.90
2023-02-13T06:14:40.904Z,4.90
2023-02-13T06:17:07.603Z,5.00
2023-02-13T06:19:34.476Z,5.00
2023-02-13T06:22:01.207Z,5.00
2023-02-13T06:24:28.001Z,5.00
2023-02-13T06:26:54.733Z,5.00
2023-02-13T06:29:21.439Z,5.00
2023-02-13T06:31:48.200Z,5.00
2023-02-13T06:34:15.006Z,5.00
2023-02-13T06:36:42.602Z,5.00
2023-02-13T06:39:11.184Z,5.00
2023-02-13T06:41:37.882Z,5.00
2023-02-13T06:44:04.705Z,5.00
2023-02-13T06:46:31.429Z,5.00
2023-02-13T06:48:58.162Z,5.00
2023-02-13T06:51:24.954Z,5.00
2023-02-13T06:53:51.694Z,5.00
2023-02-13T06:56:18.933Z,5.00
2023-02-13T06:58:46.312Z,5.00
2023-02-13T07:01:13.045Z,5.00
2023-02-13T07:03:39.920Z,5.00
2023-02-13T07:06:06.872Z,5.00
2023-02-13T07:08:33.718Z,5.10
2023-02-13T07:11:00.447Z,5.20
2023-02-13T07:13:27.130Z,5.30
2023-02-13T07:15:53.947Z,5.40
2023-02-13T07:18:20.660Z,5.60
2023-02-13T07:20:47.442Z,5.70
2023-02-13T07:23:14.209Z,6.00
2023-02-13T07:25:40.940Z,6.30
2023-02-13T07:28:07.703Z,6.50
2023-02-13T07:30:35.530Z,6.90
2023-02-13T07:33:04.012Z,7.30
2023-02-13T07:35:31.620Z,7.60
2023-02-13T07:38:00.397Z,8.00
2023-02-13T07:40:27.471Z,8.40
2023-02-13T07:42:54.201Z,8.80
2023-02-13T07:45:20.945Z,9.30
2023-02-13T07:47:47.661Z,9.70
2023-02-13T07:50:14.442Z,10.10
2023-02-13T07:52:41.202Z,10.50
2023-02-13T07:55:08.644Z,10.90
2023-02-13T07:57:35.351Z,11.20
2023-02-13T08:00:02.511Z,11.50
2023-02-13T08:02:29.266Z,11.90
2023-02-13T08:04:56.028Z,12.30
2023-02-13T08:07:22.793Z,12.60
2023-02-13T08:10:08.113Z,12.90
2023-02-13T08:12:36.607Z,13.20
2023-02-13T08:15:04.292Z,13.60
2023-02-13T08:17:31.075Z,14.00
2023-02-13T08:19:58.468Z,14.40
2023-02-13T08:22:25.203Z,14.70
2023-02-13T08:24:52.056Z,15.20
2023-02-13T08:27:18.752Z,15.60
2023-02-13T08:29:45.498Z,16.00
2023-02-13T08:32:14.853Z,16.40
2023-02-13T08:34:42.555Z,16.70
2023-02-13T08:37:09.284Z,16.80
2023-02-13T08:39:35.988Z,17.50
2023-02-13T08:49:27.677Z,17.70
2023-02-13T08:51:54.379Z,17.70
2023-02-13T08:54:21.091Z,17.90
2023-02-13T08:56:47.866Z,17.90
2023-02-13T08:59:14.856Z,18.20
2023-02-13T09:01:42.071Z,17.90
2023-02-13T09:04:09.040Z,18.00
2023-02-13T09:06:35.756Z,18.40
2023-02-13T09:09:04.668Z,17.70
2023-02-13T09:11:31.384Z,17.70
2023-02-13T09:13:58.134Z,17.70
2023-02-13T09:16:24.852Z,18.20
2023-02-13T09:18:52.397Z,18.30
2023-02-13T09:21:23.524Z,18.00
2023-02-13T09:23:51.509Z,18.00
2023-02-13T09:26:20.652Z,18.20
2023-02-13T09:28:48.233Z,18.30
2023-02-13T09:31:19.567Z,18.50
2023-02-13T09:33:48.502Z,19.10
2023-02-13T09:36:20.070Z,19.00
2023-02-13T09:38:52.207Z,19.20
2023-02-13T09:41:26.513Z,19.20
2023-02-13T09:44:07.647Z,19.10
2023-02-13T09:46:38.575Z,19.50
2023-02-13T09:49:16.825Z,19.40
2023-02-13T09:51:46.656Z,19.00
2023-02-13T09:54:19.146Z,19.20
2023-02-13T09:57:31.155Z,19.10
2023-02-13T10:00:22.086Z,19.20
2023-02-13T10:03:29.192Z,19.30
2023-02-13T10:06:50.269Z,19.50
2023-02-13T10:09:52.176Z,19.80
2023-02-13T10:12:49.471Z,20.00
2023-02-13T10:15:49.580Z,20.30
2023-02-13T10:18:32.059Z,20.50
2023-02-13T10:21:02.379Z,20.60
2023-02-13T10:23:40.563Z,20.80
2023-02-13T10:26:42.686Z,21.00
2023-02-13T10:30:00.917Z,21.20
2023-02-13T10:33:11.094Z,21.40
2023-02-13T10:35:38.967Z,21.50
2023-02-13T10:38:20.336Z,21.60
2023-02-13T10:41:13.938Z,21.70
2023-02-13T10:44:13.009Z,21.70
2023-02-13T10:47:07.019Z,21.90
2023-02-13T10:49:58.488Z,22.10
2023-02-13T10:53:04.491Z,22.30
2023-02-13T10:55:55.328Z,22.40
2023-02-13T10:59:02.197Z,22.50
2023-02-13T11:01:40.439Z,22.50
2023-02-13T11:04:13.392Z,22.60
2023-02-13T11:06:57.467Z,22.70
2023-02-13T11:09:24.720Z,22.70
2023-02-13T11:11:52.557Z,22.90
2023-02-13T11:14:26.939Z,22.90
2023-02-13T11:17:01.162Z,23.00
2023-02-13T11:19:46.235Z,23.00
2023-02-13T11:22:26.678Z,23.00
2023-02-13T11:25:00.504Z,22.90
2023-02-13T11:27:33.264Z,22.90
2023-02-13T11:30:06.717Z,22.80
2023-02-13T11:32:35.230Z,22.90
2023-02-13T11:35:33.877Z,22.90
2023-02-13T11:38:16.002Z,22.90
2023-02-13T11:40:49.342Z,22.90
2023-02-13T11:43:29.279Z,22.90
2023-02-13T11:46:17.391Z,22.80
2023-02-13T11:48:56.507Z,22.70
2023-02-13T11:51:39.683Z,22.60
2023-02-13T11:54:17.475Z,22.50
2023-02-13T11:57:04.446Z,22.40
2023-02-13T11:59:41.691Z,22.30
2023-02-13T12:02:29.275Z,22.10
2023-02-13T12:05:23.573Z,22.00
2023-02-13T12:07:51.160Z,21.90
2023-02-13T12:10:28.403Z,21.80
2023-02-13T12:13:13.638Z,21.70
2023-02-13T12:15:43.216Z,21.60
2023-02-13T12:18:21.699Z,21.40
2023-02-13T12:20:57.399Z,21.30
2023-02-13T12:24:02.457Z,21.20
2023-02-13T12:26:40.569Z,21.10
2023-02-13T12:29:29.142Z,20.90
2023-02-13T12:32:40.420Z,20.80
2023-02-13T12:35:34.280Z,20.50
2023-02-13T12:38:26.039Z,20.30
2023-02-13T12:41:22.532Z,20.00
2023-02-13T12:44:19.044Z,19.80
2023-02-13T12:47:11.716Z,19.60
2023-02-13T12:49:59.226Z,19.40
2023-02-13T12:52:59.239Z,19.20
2023-02-13T12:55:36.335Z,19.00
2023-02-13T12:58:43.314Z,18.80
2023-02-13T13:01:38.588Z,18.70
2023-02-13T13:04:25.763Z,18.60
2023-02-13T13:07:15.704Z,18.40
2023-02-13T13:10:12.125Z,18.30
2023-02-13T13:13:04.769Z,18.20
2023-02-13T13:15:46.194Z,18.10
2023-02-13T13:18:24.885Z,18.10
2023-02-13T13:21:16.436Z,17.90
2023-02-13T13:24:01.468Z,17.80
2023-02-13T13:26:37.279Z,17.70
2023-02-13T13:29:15.404Z,17.60
2023-02-13T13:32:01.450Z,17.40
2023-02-13T13:34:35.258Z,17.30
2023-02-13T13:37:29.287Z,17.20
2023-02-13T13:40:39.142Z,17.20
2023-02-13T13:43:27.678Z,17.00
2023-02-13T13:46:13.697Z,16.90
2023-02-13T13:49:25.127Z,16.90
2023-02-13T13:51:51.882Z,16.70
2023-02-13T13:54:23.822Z,16.70
2023-02-13T13:56:53.317Z,16.60
2023-02-13T13:59:48.576Z,16.60
2023-02-13T14:02:18.356Z,16.50
2023-02-13T14:05:24.897Z,16.40
2023-02-13T14:07:59.122Z,16.30
2023-02-13T14:10:26.122Z,16.30
2023-02-13T14:12:55.588Z,16.20
2023-02-13T14:15:34.636Z,16.20
2023-02-13T14:18:17.459Z,16.10
2023-02-13T14:20:59.255Z,16.10
2023-02-13T14:23:50.291Z,16.00
2023-02-13T14:26:27.865Z,16.00
2023-02-13T14:29:01.853Z,15.90
2023-02-13T14:31:39.233Z,15.80
2023-02-13T14:34:11.844Z,15.80
2023-02-13T14:36:42.574Z,15.70
2023-02-13T14:39:31.141Z,15.80
2023-02-13T14:42:00.998Z,15.70
2023-02-13T14:44:47.292Z,15.60
2023-02-13T14:47:22.408Z,15.60
2023-02-13T14:49:51.580Z,15.50
2023-02-13T14:52:32.700Z,15.50
2023-02-13T14:55:16.937Z,15.50
2023-02-13T14:57:49.014Z,15.50
2023-02-13T15:00:42.920Z,15.40
2023-02-13T15:03:40.371Z,15.40
2023-02-13T15:06:25.524Z,15.40
2023-02-13T15:08:55.721Z,15.40
2023-02-13T15:11:42.734Z,15.30
2023-02-13T15:14:36.613Z,15.30
2023-02-13T15:17:24.076Z,15.20
2023-02-13T15:19:54.582Z,15.20
2023-02-13T15:22:40.012Z,15.10
2023-02-13T15:25:09.376Z,15.10
2023-02-13T15:27:46.085Z,15.10
2023-02-13T15:30:27.081Z,15.00
2023-02-13T15:33:00.839Z,15.00
2023-02-13T15:35:37.521Z,15.00
2023-02-13T15:38:29.231Z,15.00
2023-02-13T15:41:16.768Z,14.90
2023-02-13T15:43:50.809Z,14.90
2023-02-13T15:46:34.026Z,14.90
2023-02-13T15:49:06.997Z,14.70
2023-02-13T15:51:34.784Z,14.80
2023-02-13T15:54:06.315Z,14.70
2023-02-13T15:56:34.802Z,14.70
2023-02-13T15:59:03.372Z,14.60
2023-02-13T16:01:32.146Z,14.60
2023-02-13T16:04:08.532Z,14.50
2023-02-13T16:06:36.323Z,14.50
2023-02-13T16:09:03.851Z,14.40
2023-02-13T16:11:38.600Z,14.40
2023-02-13T16:14:27.879Z,14.30
2023-02-13T16:17:16.786Z,14.20
2023-02-13T16:20:06.678Z,14.20
2023-02-13T16:22:43.209Z,14.10
2023-02-13T16:25:12.711Z,14.10
2023-02-13T16:27:50.413Z,14.00
2023-02-13T16:30:24.543Z,14.00
2023-02-13T16:32:51.534Z,13.90
2023-02-13T16:35:29.934Z,13.80
2023-02-13T16:38:02.160Z,13.80
2023-02-13T16:40:33.150Z,13.70
2023-02-13T16:43:34.530Z,13.70
2023-02-13T16:46:22.032Z,13.60
2023-02-13T16:48:59.737Z,13.50
2023-02-13T16:51:34.326Z,13.50
2023-02-13T16:54:12.227Z,13.40
2023-02-13T16:57:15.516Z,13.30
2023-02-13T16:59:48.082Z,13.30
2023-02-13T17:02:17.793Z,13.20
2023-02-13T17:05:14.715Z,13.10
2023-02-13T17:07:54.607Z,13.10
2023-02-13T17:10:37.415Z,12.90
2023-02-13T17:13:13.264Z,12.80
2023-02-13T17:15:46.744Z,12.80
2023-02-13T17:18:13.810Z,12.70
2023-02-13T17:20:43.905Z,12.60
2023-02-13T17:23:22.421Z,12.60
2023-02-13T17:25:51.291Z,12.50
2023-02-13T17:28:22.277Z,12.50
2023-02-13T17:30:52.885Z,12.40
2023-02-13T17:33:34.163Z,12.40
2023-02-13T17:36:00.864Z,12.30
2023-02-13T17:38:27.626Z,12.20
2023-02-13T17:40:54.531Z,12.20
2023-02-13T17:43:21.690Z,12.10
2023-02-13T17:45:49.901Z,12.00
2023-02-13T17:48:17.188Z,12.00
2023-02-13T17:50:44.709Z,11.90
2023-02-13T17:53:30.107Z,11.90
2023-02-13T17:55:56.982Z,11.80
2023-02-13T17:58:23.801Z,11.70
2023-02-13T18:00:51.277Z,11.70
2023-02-13T18:03:18.265Z,11.60
2023-02-13T18:05:48.583Z,11.60
2023-02-13T18:08:15.799Z,11.50
2023-02-13T18:10:42.570Z,11.40
2023-02-13T18:13:09.320Z,11.40
2023-02-13T18:15:41.922Z,11.40
2023-02-13T18:18:09.959Z,11.30
2023-02-13T18:20:36.761Z,11.30
2023-02-13T18:23:03.576Z,11.30
2023-02-13T18:25:30.306Z,11.20
2023-02-13T18:27:57.061Z,11.20
2023-02-13T18:30:24.469Z,11.20
2023-02-13T18:32:58.918Z,11.10
2023-02-13T18:35:26.527Z,11.10
2023-02-13T18:37:53.690Z,11.10
2023-02-13T18:40:20.726Z,11.00
2023-02-13T18:42:48.427Z,11.00
2023-02-13T18:45:16.430Z,10.90
2023-02-13T18:47:43.161Z,10.90
2023-02-13T18:50:10.313Z,10.80
2023-02-13T18:52:37.097Z,10.80
2023-02-13T18:55:06.878Z,10.70
2023-02-13T18:57:33.820Z,10.70
2023-02-13T19:00:00.542Z,10.60
2023-02-13T19:02:27.791Z,10.60
2023-02-13T19:04:54.496Z,10.50
2023-02-13T19:07:21.251Z,10.50
2023-02-13T19:09:48.591Z,10.40
2023-02-13T19:12:15.325Z,10.40
2023-02-13T19:14:42.069Z,10.30
2023-02-13T19:17:10.128Z,10.30
2023-02-13T19:19:37.141Z,10.20
2023-02-13T19:22:04.053Z,10.10
2023-02-13T19:24:30.915Z,10.10
2023-02-13T19:26:57.952Z,10.00
2023-02-13T19:29:24.826Z,9.90
2023-02-13T19:31:51.675Z,9.90
2023-02-13T19:34:18.420Z,9.80
2023-02-13T19:36:45.210Z,9.80
2023-02-13T19:39:12.305Z,9.70
2023-02-13T19:41:42.375Z,9.60
2023-02-13T19:44:09.238Z,9.60
2023-02-13T19:46:37.195Z,9.50
2023-02-13T19:49:05.196Z,9.50
2023-02-13T19:51:34.118Z,9.50
2023-02-13T19:54:07.260Z,9.40
2023-02-13T19:56:37.802Z,9.30
2023-02-13T19:59:07.089Z,9.30
2023-02-13T20:01:34.426Z,9.20
2023-02-13T20:04:01.369Z,9.10
2023-02-13T20:06:34.891Z,9.10
2023-02-13T20:09:08.759Z,9.00
2023-02-13T20:11:35.748Z,9.00
2023-02-13T20:14:04.029Z,9.30
2023-02-13T20:16:35.623Z,8.90
2023-02-13T20:19:09.499Z,8.80
2023-02-13T20:21:37.295Z,8.70
2023-02-13T20:24:05.535Z,8.60
2023-02-13T20:26:32.390Z,8.60
2023-02-13T20:28:59.678Z,8.60
2023-02-13T20:31:28.936Z,8.50
2023-02-13T20:33:57.230Z,8.40
2023-02-13T20:36:31.577Z,8.40
2023-02-13T20:39:02.034Z,8.40
2023-02-13T20:41:33.483Z,8.70
2023-02-13T20:44:04.969Z,8.70
2023-02-13T20:46:36.842Z,8.20
2023-02-13T20:49:07.565Z,8.90
2023-02-13T20:51:35.214Z,8.70
2023-02-13T20:54:02.394Z,8.40
2023-02-13T20:56:29.554Z,8.20
2023-02-13T20:58:59.696Z,8.20
2023-02-13T21:01:31.105Z,8.10
2023-02-13T21:03:59.814Z,8.60
2023-02-13T21:06:36.446Z,8.00
2023-02-13T21:09:05.719Z,8.20
2023-02-13T21:11:34.475Z,7.90
2023-02-13T21:14:02.468Z,7.10
2023-02-13T21:16:34.224Z,7.90
2023-02-13T21:19:05.407Z,8.40
2023-02-13T21:21:35.618Z,7.70
2023-02-13T21:24:08.164Z,7.10
2023-02-13T21:26:36.189Z,7.60
2023-02-13T21:29:04.290Z,7.60
2023-02-13T21:31:46.523Z,7.50
2023-02-13T21:34:16.065Z,7.50
2023-02-13T21:36:45.699Z,7.40
2023-02-13T21:39:13.575Z,7.40
2023-02-13T21:41:59.409Z,7.30
2023-02-13T21:44:39.565Z,7.20
2023-02-13T21:47:08.041Z,7.20
2023-02-13T21:49:35.922Z,7.10
2023-02-13T21:52:02.769Z,7.70
2023-02-13T21:54:29.510Z,7.60
2023-02-13T21:56:56.244Z,7.10
2023-02-13T21:59:23.061Z,7.10
2023-02-13T22:01:51.573Z,7.10
2023-02-13T22:04:18.868Z,7.00
2023-02-13T22:06:51.043Z,7.00
2023-02-13T22:09:20.463Z,7.00
2023-02-13T22:11:47.749Z,7.00
2023-02-13T22:14:17.462Z,7.00
2023-02-13T22:16:45.592Z,7.00
2023-02-13T22:19:15.969Z,7.00
2023-02-13T22:21:43.351Z,7.00
2023-02-13T22:24:10.738Z,6.90
2023-02-13T22:26:40.897Z,6.90
2023-02-13T22:29:11.251Z,6.90
2023-02-13T22:31:38.414Z,6.90
2023-02-13T22:34:06.372Z,6.80
2023-02-13T22:36:38.742Z,6.80
2023-02-13T22:39:07.639Z,6.70
2023-02-13T22:41:34.698Z,6.70
2023-02-13T22:44:01.452Z,6.70
2023-02-13T22:46:33.636Z,6.60
2023-02-13T22:49:01.200Z,6.50
2023-02-13T22:51:31.986Z,6.50
2023-02-13T22:53:59.728Z,6.50
2023-02-13T22:56:30.320Z,6.50
2023-02-13T22:58:57.871Z,6.40
2023-02-13T23:01:28.726Z,6.40
2023-02-13T23:03:56.727Z,6.40
2023-02-13T23:06:24.489Z,6.30
2023-02-13T23:08:53.382Z,6.30
2023-02-13T23:11:43.959Z,6.30
2023-02-13T23:14:11.093Z,6.30
2023-02-13T23:17:01.121Z,6.30
2023-02-13T23:19:29.771Z,6.30
2023-02-13T23:21:56.977Z,6.20
2023-02-13T23:24:23.982Z,6.20
2023-02-13T23:26:50.811Z,6.20
2023-02-13T23:29:17.723Z,6.20
2023-02-13T23:31:44.779Z,6.10
2023-02-13T23:34:11.768Z,6.10
2023-02-13T23:36:38.550Z,6.10
2023-02-13T23:39:05.340Z,6.10
2023-02-13T23:41:32.044Z,6.00
2023-02-13T23:43:58.738Z,6.00
2023-02-13T23:46:25.812Z,6.00
2023-02-13T23:48:52.587Z,6.00
2023-02-13T23:51:21.170Z,6.00
2023-02-13T23:53:47.942Z,6.00
2023-02-13T23:56:14.832Z,6.10
2023-02-13T23:58:41.628Z,6.00
